Aérodrome :
LOGIN :

S'inscrire | Disclaimer

   EN    FR    IT 

 










Légende :    VFR   VFR Marginal   IFR   IFR Intensif   IFR Très Intensif
Visi : 
Plafond : 
>= 8 km
>= 3000ft
5 à 8 km
1000 à 3000 ft
1500m à 5 km
500 à 1000 ft
800 à 1500m
200 à 500 ft
< 800m
< 200 ft
Symboles :   Orages  Brouillard  Fortes neiges  Fortes précipitations  Vent > 20 kt
SIGMETs :   Divers  Orages  Givrage  Turbulence  Onde Orograph.  Cendres Volcan.







- Altitude de l'aérodrome : 1682 ft
- Code IATA : VIT


LEVT - Vitoria Gasteiz

DERNIER METAR :
  • 271330Z 32012KT 9999 BKN020 OVC025 15/11 Q1018

METARs EXPIRÉS :
  • 271300Z 07004KT 040V110 9999 BKN020 BKN027 15/11 Q1018
  • 271230Z VRB02KT 9999 BKN022 OVC027 15/11 Q1018
  • 271200Z 35004KT 320V030 9000 7000S SCT019 OVC026 15/11 Q1018
  • 271130Z 31005KT 280V360 9000 5500SW FEW013 BKN021 OVC026 14/12 Q1019
  • 271100Z 30007KT 8000 5000SW SCT019 OVC021 13/11 Q1019

TAF TAF LEVT
Valide du 27 à 12h jusqu'au 28 à 12h UTC


271100Z 2712/2812 32009KT 9999 SCT015 BKN025 TX16/2713Z TN07/2806Z
PROB40
TEMPO 2712/2718 3000 -RADZ BR BKN005 BKN010
TEMPO 2712/2812 BKN014
PROB40
TEMPO 2806/2812 3000 -RADZ BR BKN010
Pas de NOTAMs connus pour ce terrain.



MET'MAP, la Météo Aéronautique d'un coup d'oeil ! - Copyright ORBIFLY Décembre 2007 - Disclaimer

ORBIFLY MET'MAP TEAM :

Programmation & Développement : Alexandra Zaïnal
Conception & Développement : Baudouin d'Aumeries
Co-Programmation & Développement : Marc-Olivier Méhu
Soutien technique & logistique : Manuel Goepfert

Contact : metmap@orbifly.com




SOURCES & CREDITS :

   NOAA